Item Display Status Humidity-temperature Sensor

Elevation Above Sea Level: 3 m

 

Deployed Sensor

  • Serial Number: 20351209
  • NDBC Property Number: 43275
  • Start Date: 4/17/2020 (11:11:26 Z)
  • End Date: Currently Active
Relative Humidity [%]     6 entries per hour
Showing data from 10/27/2020 (06:00:00 Z) to 10/26/2020 (00:00:01 Z)
Previous Next [ Day | 3-Days | 7-Days ]
First Last
Prev [ Day | 3-Days | 7-Days ] Next
First Last

Start Time:     :
End Time:     :     
Time (in GMT) :00 :50 :40 :30 :20 :10
Previous Next [ Day | 3-Days | 7-Days ]
First Last
Prev [ Day | 3-Days | 7-Days ] Next
First Last


123 => good data
MM => data is determined as missing
-- => data not received/configured
Back to Top Back to Top
10/27/2020 06:00 to 5:10 97.49 97.20 97.16 97.08 96.58 96.44
10/27/2020 05:00 to 4:10 95.94 95.72 95.20 94.56 93.96 92.89
10/27/2020 04:00 to 3:10 92.93 92.58 91.59 91.80 91.07 94.91
10/27/2020 03:00 to 2:10 94.85 96.23 96.03 95.08 94.05 92.77
10/27/2020 02:00 to 1:10 92.56 94.64 98.07 98.09 97.86 93.78
10/27/2020 01:00 to 0:10 96.63 96.32 95.02 93.30 94.67 95.66
10/27/2020 00:00 to 23:10 95.80 94.75 93.76 94.54 93.70 93.41
10/26/2020 23:00 to 22:10 93.70 92.99 92.31 91.65 91.74 92.83
10/26/2020 22:00 to 21:10 92.60 93.30 93.16 93.55 93.04 94.00
10/26/2020 21:00 to 20:10 94.48 97.43 96.77 96.87 95.68 95.55
10/26/2020 20:00 to 19:10 95.61 95.61 95.41 94.56 94.42 96.89
10/26/2020 19:00 to 18:10 97.68 99.14 98.19 98.40 97.91 97.91
10/26/2020 18:00 to 17:10 98.57 100.57 101.35 101.48 101.45 101.48
10/26/2020 17:00 to 16:10 101.10 98.85 98.48 99.14 99.06 99.00
10/26/2020 16:00 to 15:10 98.83 96.87 96.42 95.80 96.42 97.47
10/26/2020 15:00 to 14:10 98.36 98.65 98.48 98.34 97.68 97.99
10/26/2020 14:00 to 13:10 98.85 98.92 98.92 99.31 99.62 99.70
10/26/2020 13:00 to 12:10 100.15 101.08 101.48 101.41 99.23 99.16
10/26/2020 12:00 to 11:10 99.54 99.62 99.60 99.74 99.25 98.42
10/26/2020 11:00 to 10:10 99.16 100.28 100.24 100.01 100.46 100.18
10/26/2020 10:00 to 9:10 100.63 101.02 101.15 100.94 100.77 100.40
10/26/2020 09:00 to 8:10 100.65 100.88 100.96 101.45 101.15 100.77
10/26/2020 08:00 to 7:10 101.04 101.48 101.45 100.90 100.88 100.59
10/26/2020 07:00 to 6:10 101.19 101.45 101.45 101.48 100.86 100.36
10/26/2020 06:00 to 5:10 98.13 95.49 95.86 97.16 98.40 98.75
10/26/2020 05:00 to 4:10 99.66 100.13 100.07 99.99 99.74 99.51
10/26/2020 04:00 to 3:10 99.31 99.18 99.04 98.94 98.92 98.77
10/26/2020 03:00 to 2:10 98.73 98.67 98.50 98.32 98.19 98.34
10/26/2020 02:00 to 1:10 98.36 98.30 98.50 98.42 98.38 98.03
10/26/2020 01:00 to 0:10 97.51 97.43 97.18 96.89 96.87 96.42

 

 

 

Air Temperature [°C]     6 entries per hour
Showing data from 10/27/2020 (06:00:00 Z) to 10/26/2020 (00:00:01 Z)
Previous Next [ Day | 3-Days | 7-Days ]
First Last
Prev [ Day | 3-Days | 7-Days ] Next
First Last

Start Time:     :
End Time:     :     
Time (in GMT) :00 :50 :40 :30 :20 :10
Previous Next [ Day | 3-Days | 7-Days ]
First Last
Prev [ Day | 3-Days | 7-Days ] Next
First Last


123 => good data
MM => data is determined as missing
-- => data not received/configured
Back to Top Back to Top
10/27/2020 06:00 to 5:10 19.18 19.15 19.19 19.20 19.20 19.23
10/27/2020 05:00 to 4:10 19.25 19.26 19.27 19.33 19.38 19.39
10/27/2020 04:00 to 3:10 19.41 19.43 19.49 19.50 19.48 19.38
10/27/2020 03:00 to 2:10 19.34 19.30 19.28 19.31 19.35 19.41
10/27/2020 02:00 to 1:10 19.33 19.18 19.07 18.98 18.99 19.41
10/27/2020 01:00 to 0:10 19.35 19.33 19.36 19.48 19.36 19.45
10/27/2020 00:00 to 23:10 19.47 19.53 19.57 19.48 19.49 19.55
10/26/2020 23:00 to 22:10 19.51 19.55 19.87 19.75 19.70 19.69
10/26/2020 22:00 to 21:10 19.68 19.69 19.67 19.58 19.61 19.54
10/26/2020 21:00 to 20:10 19.47 18.74 19.32 19.19 19.42 19.45
10/26/2020 20:00 to 19:10 19.40 19.45 19.47 19.41 19.26 19.11
10/26/2020 19:00 to 18:10 18.98 18.84 19.19 19.22 19.14 19.03
10/26/2020 18:00 to 17:10 18.99 18.85 18.82 18.70 18.49 18.50
10/26/2020 17:00 to 16:10 18.66 18.95 19.07 18.94 18.82 18.99
10/26/2020 16:00 to 15:10 18.89 19.23 19.31 19.24 19.15 19.07
10/26/2020 15:00 to 14:10 19.18 19.19 19.18 19.20 19.13 18.83
10/26/2020 14:00 to 13:10 19.04 19.06 18.99 18.87 18.82 18.99
10/26/2020 13:00 to 12:10 18.88 18.56 18.36 18.32 18.65 18.92
10/26/2020 12:00 to 11:10 18.94 18.94 18.87 18.79 18.80 18.87
10/26/2020 11:00 to 10:10 18.73 18.68 18.76 18.83 18.67 18.80
10/26/2020 10:00 to 9:10 18.75 18.65 18.65 18.56 18.56 18.57
10/26/2020 09:00 to 8:10 18.50 18.54 18.56 18.49 18.70 18.62
10/26/2020 08:00 to 7:10 18.52 18.34 18.29 18.66 18.74 18.66
10/26/2020 07:00 to 6:10 18.56 18.29 18.17 18.51 18.82 18.84
10/26/2020 06:00 to 5:10 18.98 19.25 19.32 19.27 19.21 19.18
10/26/2020 05:00 to 4:10 19.06 19.14 19.13 19.13 19.14 19.13
10/26/2020 04:00 to 3:10 19.15 19.17 19.21 19.19 19.19 19.21
10/26/2020 03:00 to 2:10 19.24 19.26 19.26 19.28 19.26 19.27
10/26/2020 02:00 to 1:10 19.26 19.27 19.28 19.27 19.31 19.33
10/26/2020 01:00 to 0:10 19.33 19.34 19.37 19.35 19.37 19.40